sensor_id;sensor_type;location;lat;lon;timestamp;temperature;humidity
17879;DHT22;9065;51.050;13.758;2023-03-14T00:01:55;12.00;99.90
17879;DHT22;9065;51.050;13.758;2023-03-14T00:04:24;12.00;99.90
17879;DHT22;9065;51.050;13.758;2023-03-14T00:06:52;12.00;99.90
17879;DHT22;9065;51.050;13.758;2023-03-14T00:09:19;12.00;99.90
17879;DHT22;9065;51.050;13.758;2023-03-14T00:11:47;12.00;99.90
17879;DHT22;9065;51.050;13.758;2023-03-14T00:14:20;12.00;99.90
17879;DHT22;9065;51.050;13.758;2023-03-14T00:16:50;12.00;99.90
17879;DHT22;9065;51.050;13.758;2023-03-14T00:19:17;12.00;99.90
17879;DHT22;9065;51.050;13.758;2023-03-14T00:21:52;11.90;99.90
17879;DHT22;9065;51.050;13.758;2023-03-14T00:24:18;11.90;99.90
17879;DHT22;9065;51.050;13.758;2023-03-14T00:26:45;11.90;99.90
17879;DHT22;9065;51.050;13.758;2023-03-14T00:29:13;11.80;99.90
17879;DHT22;9065;51.050;13.758;2023-03-14T00:31:42;11.80;99.90
17879;DHT22;9065;51.050;13.758;2023-03-14T00:34:08;11.80;99.90
17879;DHT22;9065;51.050;13.758;2023-03-14T00:36:44;11.80;99.90
17879;DHT22;9065;51.050;13.758;2023-03-14T00:39:28;11.80;99.90
17879;DHT22;9065;51.050;13.758;2023-03-14T00:41:56;11.80;99.90
17879;DHT22;9065;51.050;13.758;2023-03-14T00:44:29;11.80;99.90
17879;DHT22;9065;51.050;13.758;2023-03-14T00:46:57;11.80;99.90
17879;DHT22;9065;51.050;13.758;2023-03-14T00:49:34;11.80;99.90
17879;DHT22;9065;51.050;13.758;2023-03-14T00:52:07;11.90;99.90
17879;DHT22;9065;51.050;13.758;2023-03-14T00:54:44;11.90;99.90
17879;DHT22;9065;51.050;13.758;2023-03-14T00:57:11;11.90;99.90
17879;DHT22;9065;51.050;13.758;2023-03-14T00:59:38;11.90;99.90
17879;DHT22;9065;51.050;13.758;2023-03-14T01:02:34;11.80;99.90
17879;DHT22;9065;51.050;13.758;2023-03-14T01:05:11;11.80;99.90
17879;DHT22;9065;51.050;13.758;2023-03-14T01:07:45;11.80;99.90
17879;DHT22;9065;51.050;13.758;2023-03-14T01:10:14;11.80;99.90
17879;DHT22;9065;51.050;13.758;2023-03-14T01:12:42;11.80;99.90
17879;DHT22;9065;51.050;13.758;2023-03-14T01:15:11;11.70;99.90
17879;DHT22;9065;51.050;13.758;2023-03-14T01:17:39;11.70;99.90
17879;DHT22;9065;51.050;13.758;2023-03-14T01:20:10;11.70;99.90
17879;DHT22;9065;51.050;13.758;2023-03-14T01:22:49;11.70;99.90
17879;DHT22;9065;51.050;13.758;2023-03-14T01:25:18;11.70;99.90
17879;DHT22;9065;51.050;13.758;2023-03-14T01:27:49;11.80;99.90
17879;DHT22;9065;51.050;13.758;2023-03-14T01:30:15;11.80;99.90
17879;DHT22;9065;51.050;13.758;2023-03-14T01:32:43;11.80;99.90
17879;DHT22;9065;51.050;13.758;2023-03-14T01:35:17;11.80;99.90
17879;DHT22;9065;51.050;13.758;2023-03-14T01:37:47;11.90;99.90
17879;DHT22;9065;51.050;13.758;2023-03-14T01:40:17;11.90;99.90
17879;DHT22;9065;51.050;13.758;2023-03-14T01:42:53;12.00;99.90
17879;DHT22;9065;51.050;13.758;2023-03-14T01:48:55;12.00;99.90
17879;DHT22;9065;51.050;13.758;2023-03-14T01:51:33;12.00;99.90
17879;DHT22;9065;51.050;13.758;2023-03-14T01:54:07;12.00;99.90
17879;DHT22;9065;51.050;13.758;2023-03-14T01:56:39;12.00;99.90
17879;DHT22;9065;51.050;13.758;2023-03-14T01:59:10;12.00;99.90
17879;DHT22;9065;51.050;13.758;2023-03-14T02:01:46;12.00;99.90
17879;DHT22;9065;51.050;13.758;2023-03-14T02:04:16;12.00;99.90
17879;DHT22;9065;51.050;13.758;2023-03-14T02:06:59;12.00;99.90
17879;DHT22;9065;51.050;13.758;2023-03-14T02:09:28;12.00;99.90
17879;DHT22;9065;51.050;13.758;2023-03-14T02:12:03;12.00;99.90
17879;DHT22;9065;51.050;13.758;2023-03-14T02:14:37;12.10;99.90
17879;DHT22;9065;51.050;13.758;2023-03-14T02:17:05;12.10;99.90
17879;DHT22;9065;51.050;13.758;2023-03-14T02:20:04;12.10;99.90
17879;DHT22;9065;51.050;13.758;2023-03-14T02:22:37;12.20;99.90
17879;DHT22;9065;51.050;13.758;2023-03-14T02:25:14;12.20;99.90
17879;DHT22;9065;51.050;13.758;2023-03-14T02:27:46;12.20;99.90
17879;DHT22;9065;51.050;13.758;2023-03-14T02:30:15;12.20;99.90
17879;DHT22;9065;51.050;13.758;2023-03-14T02:32:47;12.20;99.90
17879;DHT22;9065;51.050;13.758;2023-03-14T02:35:17;12.20;99.90
17879;DHT22;9065;51.050;13.758;2023-03-14T02:37:54;12.20;99.90
17879;DHT22;9065;51.050;13.758;2023-03-14T02:40:43;12.10;99.90
17879;DHT22;9065;51.050;13.758;2023-03-14T02:43:17;12.10;99.90
17879;DHT22;9065;51.050;13.758;2023-03-14T02:45:46;12.10;99.90
17879;DHT22;9065;51.050;13.758;2023-03-14T02:48:29;12.10;99.90
17879;DHT22;9065;51.050;13.758;2023-03-14T02:51:11;12.10;99.90
17879;DHT22;9065;51.050;13.758;2023-03-14T02:53:41;12.00;99.90
17879;DHT22;9065;51.050;13.758;2023-03-14T02:56:09;12.10;99.90
17879;DHT22;9065;51.050;13.758;2023-03-14T02:58:43;12.10;99.90
17879;DHT22;9065;51.050;13.758;2023-03-14T03:01:21;12.20;99.90
17879;DHT22;9065;51.050;13.758;2023-03-14T03:03:49;12.30;99.90
17879;DHT22;9065;51.050;13.758;2023-03-14T03:06:16;12.20;99.90
17879;DHT22;9065;51.050;13.758;2023-03-14T03:08:44;12.20;99.90
17879;DHT22;9065;51.050;13.758;2023-03-14T03:11:17;12.40;99.90
17879;DHT22;9065;51.050;13.758;2023-03-14T03:13:53;12.50;99.90
17879;DHT22;9065;51.050;13.758;2023-03-14T03:16:21;12.70;99.90
17879;DHT22;9065;51.050;13.758;2023-03-14T03:19:02;12.80;99.90
17879;DHT22;9065;51.050;13.758;2023-03-14T03:21:30;12.80;99.90
17879;DHT22;9065;51.050;13.758;2023-03-14T03:24:05;13.00;99.90
17879;DHT22;9065;51.050;13.758;2023-03-14T03:26:44;12.90;99.90
17879;DHT22;9065;51.050;13.758;2023-03-14T03:29:24;13.10;99.90
17879;DHT22;9065;51.050;13.758;2023-03-14T03:31:53;13.00;99.90
17879;DHT22;9065;51.050;13.758;2023-03-14T03:34:20;13.00;99.90
17879;DHT22;9065;51.050;13.758;2023-03-14T03:36:58;13.00;99.90
17879;DHT22;9065;51.050;13.758;2023-03-14T03:39:33;13.00;99.90
17879;DHT22;9065;51.050;13.758;2023-03-14T03:42:19;13.10;99.90
17879;DHT22;9065;51.050;13.758;2023-03-14T03:44:49;13.10;99.90
17879;DHT22;9065;51.050;13.758;2023-03-14T03:47:17;13.10;99.90
17879;DHT22;9065;51.050;13.758;2023-03-14T03:49:43;13.00;99.90
17879;DHT22;9065;51.050;13.758;2023-03-14T03:52:12;13.00;99.90
17879;DHT22;9065;51.050;13.758;2023-03-14T03:54:40;13.00;99.90
17879;DHT22;9065;51.050;13.758;2023-03-14T03:57:08;13.00;99.90
17879;DHT22;9065;51.050;13.758;2023-03-14T03:59:37;13.10;99.90
17879;DHT22;9065;51.050;13.758;2023-03-14T04:02:08;13.10;99.90
17879;DHT22;9065;51.050;13.758;2023-03-14T04:04:38;13.00;99.90
17879;DHT22;9065;51.050;13.758;2023-03-14T04:07:10;12.90;99.90
17879;DHT22;9065;51.050;13.758;2023-03-14T04:10:03;13.00;99.90
17879;DHT22;9065;51.050;13.758;2023-03-14T04:12:30;13.00;99.90
17879;DHT22;9065;51.050;13.758;2023-03-14T04:15:00;13.00;99.90
17879;DHT22;9065;51.050;13.758;2023-03-14T04:17:37;12.90;99.90
17879;DHT22;9065;51.050;13.758;2023-03-14T04:20:07;13.00;99.90
17879;DHT22;9065;51.050;13.758;2023-03-14T04:22:40;12.90;99.90
17879;DHT22;9065;51.050;13.758;2023-03-14T04:25:08;12.90;99.90
17879;DHT22;9065;51.050;13.758;2023-03-14T04:27:37;12.70;99.90
17879;DHT22;9065;51.050;13.758;2023-03-14T04:30:06;12.70;99.90
17879;DHT22;9065;51.050;13.758;2023-03-14T04:32:39;12.70;99.90
17879;DHT22;9065;51.050;13.758;2023-03-14T04:35:15;12.60;99.90
17879;DHT22;9065;51.050;13.758;2023-03-14T04:37:42;12.40;99.90
17879;DHT22;9065;51.050;13.758;2023-03-14T04:40:10;12.20;99.90
17879;DHT22;9065;51.050;13.758;2023-03-14T04:42:37;12.10;99.90
17879;DHT22;9065;51.050;13.758;2023-03-14T04:45:07;12.10;99.90
17879;DHT22;9065;51.050;13.758;2023-03-14T04:47:35;12.20;99.90
17879;DHT22;9065;51.050;13.758;2023-03-14T04:50:05;12.30;99.90
17879;DHT22;9065;51.050;13.758;2023-03-14T04:52:34;12.40;99.90
17879;DHT22;9065;51.050;13.758;2023-03-14T04:55:01;12.60;99.90
17879;DHT22;9065;51.050;13.758;2023-03-14T04:57:28;12.70;99.90
17879;DHT22;9065;51.050;13.758;2023-03-14T04:59:55;12.70;99.90
17879;DHT22;9065;51.050;13.758;2023-03-14T05:02:22;12.80;99.90
17879;DHT22;9065;51.050;13.758;2023-03-14T05:04:49;12.80;99.90
17879;DHT22;9065;51.050;13.758;2023-03-14T05:07:17;12.80;99.90
17879;DHT22;9065;51.050;13.758;2023-03-14T05:09:44;12.80;99.90
17879;DHT22;9065;51.050;13.758;2023-03-14T05:12:11;12.80;99.90
17879;DHT22;9065;51.050;13.758;2023-03-14T05:14:39;12.80;99.90
17879;DHT22;9065;51.050;13.758;2023-03-14T05:17:06;12.70;99.90
17879;DHT22;9065;51.050;13.758;2023-03-14T05:19:32;12.90;99.90
17879;DHT22;9065;51.050;13.758;2023-03-14T05:21:59;13.00;99.90
17879;DHT22;9065;51.050;13.758;2023-03-14T05:24:27;13.00;99.90
17879;DHT22;9065;51.050;13.758;2023-03-14T05:26:54;12.90;99.90
17879;DHT22;9065;51.050;13.758;2023-03-14T05:29:22;12.80;99.90
17879;DHT22;9065;51.050;13.758;2023-03-14T05:31:48;12.70;99.90
17879;DHT22;9065;51.050;13.758;2023-03-14T05:34:15;12.70;99.90
17879;DHT22;9065;51.050;13.758;2023-03-14T05:36:42;12.80;99.90
17879;DHT22;9065;51.050;13.758;2023-03-14T05:39:13;12.70;99.90
17879;DHT22;9065;51.050;13.758;2023-03-14T05:41:43;12.70;99.90
17879;DHT22;9065;51.050;13.758;2023-03-14T05:44:10;12.80;99.90
17879;DHT22;9065;51.050;13.758;2023-03-14T05:46:37;12.80;99.90
17879;DHT22;9065;51.050;13.758;2023-03-14T05:49:05;12.80;99.90
17879;DHT22;9065;51.050;13.758;2023-03-14T05:51:31;12.90;99.90
17879;DHT22;9065;51.050;13.758;2023-03-14T05:53:58;12.90;99.90
17879;DHT22;9065;51.050;13.758;2023-03-14T05:56:25;12.80;99.90
17879;DHT22;9065;51.050;13.758;2023-03-14T05:58:55;12.80;99.90
17879;DHT22;9065;51.050;13.758;2023-03-14T06:01:21;12.80;99.90
17879;DHT22;9065;51.050;13.758;2023-03-14T06:03:48;12.90;99.90
17879;DHT22;9065;51.050;13.758;2023-03-14T06:06:15;12.90;99.90
17879;DHT22;9065;51.050;13.758;2023-03-14T06:08:42;12.90;99.90
17879;DHT22;9065;51.050;13.758;2023-03-14T06:11:09;12.90;99.90
17879;DHT22;9065;51.050;13.758;2023-03-14T06:13:35;13.00;99.90
17879;DHT22;9065;51.050;13.758;2023-03-14T06:16:06;12.90;99.90
17879;DHT22;9065;51.050;13.758;2023-03-14T06:18:37;13.00;99.90
17879;DHT22;9065;51.050;13.758;2023-03-14T06:21:05;13.00;99.90
17879;DHT22;9065;51.050;13.758;2023-03-14T06:23:32;13.10;99.90
17879;DHT22;9065;51.050;13.758;2023-03-14T06:25:59;13.10;99.90
17879;DHT22;9065;51.050;13.758;2023-03-14T06:28:30;13.20;99.90
17879;DHT22;9065;51.050;13.758;2023-03-14T06:31:01;13.30;99.90
17879;DHT22;9065;51.050;13.758;2023-03-14T06:33:37;13.30;99.90
17879;DHT22;9065;51.050;13.758;2023-03-14T06:36:06;13.30;99.90
17879;DHT22;9065;51.050;13.758;2023-03-14T06:38:35;13.20;99.90
17879;DHT22;9065;51.050;13.758;2023-03-14T06:41:37;13.20;99.90
17879;DHT22;9065;51.050;13.758;2023-03-14T06:44:34;13.30;99.90
17879;DHT22;9065;51.050;13.758;2023-03-14T06:47:10;13.30;99.90
17879;DHT22;9065;51.050;13.758;2023-03-14T06:49:41;13.40;99.90
17879;DHT22;9065;51.050;13.758;2023-03-14T06:52:31;13.50;99.90
17879;DHT22;9065;51.050;13.758;2023-03-14T06:55:00;13.70;99.90
17879;DHT22;9065;51.050;13.758;2023-03-14T06:57:43;13.80;99.90
17879;DHT22;9065;51.050;13.758;2023-03-14T07:00:20;14.00;99.90
17879;DHT22;9065;51.050;13.758;2023-03-14T07:02:58;14.00;99.90
17879;DHT22;9065;51.050;13.758;2023-03-14T07:05:43;14.00;99.90
17879;DHT22;9065;51.050;13.758;2023-03-14T07:08:15;14.10;99.90
17879;DHT22;9065;51.050;13.758;2023-03-14T07:10:45;14.00;99.90
17879;DHT22;9065;51.050;13.758;2023-03-14T07:13:12;14.00;99.90
17879;DHT22;9065;51.050;13.758;2023-03-14T07:15:43;14.00;99.90
17879;DHT22;9065;51.050;13.758;2023-03-14T07:18:10;14.00;99.90
17879;DHT22;9065;51.050;13.758;2023-03-14T07:20:38;14.00;99.90
17879;DHT22;9065;51.050;13.758;2023-03-14T07:23:07;14.00;99.90
17879;DHT22;9065;51.050;13.758;2023-03-14T07:25:40;13.90;99.90
17879;DHT22;9065;51.050;13.758;2023-03-14T07:28:12;14.00;99.90
17879;DHT22;9065;51.050;13.758;2023-03-14T07:34:26;14.10;99.90
17879;DHT22;9065;51.050;13.758;2023-03-14T07:43:27;14.00;99.90
17879;DHT22;9065;51.050;13.758;2023-03-14T07:45:58;14.00;99.90
17879;DHT22;9065;51.050;13.758;2023-03-14T07:48:37;14.10;99.90
17879;DHT22;9065;51.050;13.758;2023-03-14T07:51:05;14.20;99.90
17879;DHT22;9065;51.050;13.758;2023-03-14T07:53:48;14.30;99.90
17879;DHT22;9065;51.050;13.758;2023-03-14T07:56:28;14.30;99.90
17879;DHT22;9065;51.050;13.758;2023-03-14T07:59:00;14.40;99.90
17879;DHT22;9065;51.050;13.758;2023-03-14T08:01:30;14.30;99.90
17879;DHT22;9065;51.050;13.758;2023-03-14T08:04:00;14.30;99.90
17879;DHT22;9065;51.050;13.758;2023-03-14T08:06:29;14.30;99.90
17879;DHT22;9065;51.050;13.758;2023-03-14T08:08:56;14.30;99.90
17879;DHT22;9065;51.050;13.758;2023-03-14T08:11:23;14.30;99.90
17879;DHT22;9065;51.050;13.758;2023-03-14T08:14:08;14.30;99.90
17879;DHT22;9065;51.050;13.758;2023-03-14T08:16:40;14.30;99.90
17879;DHT22;9065;51.050;13.758;2023-03-14T08:19:52;14.20;99.90
17879;DHT22;9065;51.050;13.758;2023-03-14T08:23:04;14.20;99.90
17879;DHT22;9065;51.050;13.758;2023-03-14T08:26:13;14.30;99.90
17879;DHT22;9065;51.050;13.758;2023-03-14T08:29:23;14.30;99.90
17879;DHT22;9065;51.050;13.758;2023-03-14T08:31:56;14.20;99.90
17879;DHT22;9065;51.050;13.758;2023-03-14T08:34:26;14.20;99.90
17879;DHT22;9065;51.050;13.758;2023-03-14T08:37:01;14.60;99.90
17879;DHT22;9065;51.050;13.758;2023-03-14T08:39:36;14.90;99.90
17879;DHT22;9065;51.050;13.758;2023-03-14T08:43:05;15.00;99.90
17879;DHT22;9065;51.050;13.758;2023-03-14T08:49:10;15.30;99.90
17879;DHT22;9065;51.050;13.758;2023-03-14T08:52:02;15.50;99.90
17879;DHT22;9065;51.050;13.758;2023-03-14T08:54:44;15.60;99.90
17879;DHT22;9065;51.050;13.758;2023-03-14T08:57:12;15.90;99.90
17879;DHT22;9065;51.050;13.758;2023-03-14T08:59:42;16.00;99.90
17879;DHT22;9065;51.050;13.758;2023-03-14T09:02:24;15.80;99.90
17879;DHT22;9065;51.050;13.758;2023-03-14T09:05:00;15.80;99.90
17879;DHT22;9065;51.050;13.758;2023-03-14T09:07:27;15.60;99.90
17879;DHT22;9065;51.050;13.758;2023-03-14T09:09:54;15.60;99.90
17879;DHT22;9065;51.050;13.758;2023-03-14T09:12:31;15.60;99.90
17879;DHT22;9065;51.050;13.758;2023-03-14T09:15:09;15.60;99.90
17879;DHT22;9065;51.050;13.758;2023-03-14T09:17:43;15.60;99.90
17879;DHT22;9065;51.050;13.758;2023-03-14T09:20:38;15.80;99.90
17879;DHT22;9065;51.050;13.758;2023-03-14T09:23:18;16.10;99.90
17879;DHT22;9065;51.050;13.758;2023-03-14T09:25:53;16.20;99.90
17879;DHT22;9065;51.050;13.758;2023-03-14T09:31:43;16.10;99.90
17879;DHT22;9065;51.050;13.758;2023-03-14T09:34:44;15.90;99.90
17879;DHT22;9065;51.050;13.758;2023-03-14T09:37:44;15.80;99.90
17879;DHT22;9065;51.050;13.758;2023-03-14T09:43:54;15.40;99.90
17879;DHT22;9065;51.050;13.758;2023-03-14T09:47:38;15.40;99.90
17879;DHT22;9065;51.050;13.758;2023-03-14T09:53:50;15.30;99.90
17879;DHT22;9065;51.050;13.758;2023-03-14T10:00:14;15.10;99.90
17879;DHT22;9065;51.050;13.758;2023-03-14T10:06:28;15.10;99.90
17879;DHT22;9065;51.050;13.758;2023-03-14T10:09:38;15.10;99.90
17879;DHT22;9065;51.050;13.758;2023-03-14T10:12:55;15.10;99.90
17879;DHT22;9065;51.050;13.758;2023-03-14T10:32:46;14.90;99.90
17879;DHT22;9065;51.050;13.758;2023-03-14T10:35:34;15.00;99.90
17879;DHT22;9065;51.050;13.758;2023-03-14T10:38:16;15.10;99.90
17879;DHT22;9065;51.050;13.758;2023-03-14T10:40:56;15.20;99.90
17879;DHT22;9065;51.050;13.758;2023-03-14T10:43:31;15.30;99.90
17879;DHT22;9065;51.050;13.758;2023-03-14T10:46:19;15.30;99.90
17879;DHT22;9065;51.050;13.758;2023-03-14T10:48:53;15.30;99.90
17879;DHT22;9065;51.050;13.758;2023-03-14T10:51:46;15.30;99.90
17879;DHT22;9065;51.050;13.758;2023-03-14T10:54:32;15.20;99.90
17879;DHT22;9065;51.050;13.758;2023-03-14T10:59:49;15.30;99.90
17879;DHT22;9065;51.050;13.758;2023-03-14T11:02:52;15.20;99.90
17879;DHT22;9065;51.050;13.758;2023-03-14T11:05:31;15.30;99.90
17879;DHT22;9065;51.050;13.758;2023-03-14T11:08:19;15.20;99.90
17879;DHT22;9065;51.050;13.758;2023-03-14T11:11:14;15.30;99.90
17879;DHT22;9065;51.050;13.758;2023-03-14T11:14:12;15.40;99.90
17879;DHT22;9065;51.050;13.758;2023-03-14T11:16:53;15.60;99.90
17879;DHT22;9065;51.050;13.758;2023-03-14T11:22:58;15.60;99.90
17879;DHT22;9065;51.050;13.758;2023-03-14T11:25:34;15.60;99.90
17879;DHT22;9065;51.050;13.758;2023-03-14T11:28:17;15.60;99.90
17879;DHT22;9065;51.050;13.758;2023-03-14T11:31:03;15.50;99.90
17879;DHT22;9065;51.050;13.758;2023-03-14T11:33:38;15.60;99.90
17879;DHT22;9065;51.050;13.758;2023-03-14T11:36:10;15.70;99.90
17879;DHT22;9065;51.050;13.758;2023-03-14T11:38:54;16.10;99.90
17879;DHT22;9065;51.050;13.758;2023-03-14T11:41:27;16.50;99.90
17879;DHT22;9065;51.050;13.758;2023-03-14T11:44:02;16.90;99.90
17879;DHT22;9065;51.050;13.758;2023-03-14T11:46:39;17.30;99.90
17879;DHT22;9065;51.050;13.758;2023-03-14T11:49:17;17.30;99.90
17879;DHT22;9065;51.050;13.758;2023-03-14T11:52:06;17.20;99.90
17879;DHT22;9065;51.050;13.758;2023-03-14T11:54:55;16.90;99.90
17879;DHT22;9065;51.050;13.758;2023-03-14T11:57:26;16.70;99.90
17879;DHT22;9065;51.050;13.758;2023-03-14T12:00:17;16.50;99.90
17879;DHT22;9065;51.050;13.758;2023-03-14T12:03:13;16.20;99.90
17879;DHT22;9065;51.050;13.758;2023-03-14T12:05:56;15.90;99.90
17879;DHT22;9065;51.050;13.758;2023-03-14T12:08:39;15.60;99.90
17879;DHT22;9065;51.050;13.758;2023-03-14T12:11:19;15.60;99.90
17879;DHT22;9065;51.050;13.758;2023-03-14T12:13:52;15.60;99.90
17879;DHT22;9065;51.050;13.758;2023-03-14T12:16:37;15.80;99.90
17879;DHT22;9065;51.050;13.758;2023-03-14T12:24:59;16.60;99.90
17879;DHT22;9065;51.050;13.758;2023-03-14T12:30:51;17.30;99.90
17879;DHT22;9065;51.050;13.758;2023-03-14T12:33:36;17.80;99.90
17879;DHT22;9065;51.050;13.758;2023-03-14T12:36:17;18.00;99.90
17879;DHT22;9065;51.050;13.758;2023-03-14T12:39:13;18.20;99.90
17879;DHT22;9065;51.050;13.758;2023-03-14T12:42:03;18.00;99.90
17879;DHT22;9065;51.050;13.758;2023-03-14T12:48:03;17.50;99.90
17879;DHT22;9065;51.050;13.758;2023-03-14T12:50:35;17.10;99.90
17879;DHT22;9065;51.050;13.758;2023-03-14T12:53:56;17.10;99.90
17879;DHT22;9065;51.050;13.758;2023-03-14T12:56:45;17.40;99.90
17879;DHT22;9065;51.050;13.758;2023-03-14T12:59:30;17.60;99.90
17879;DHT22;9065;51.050;13.758;2023-03-14T13:04:53;17.90;99.90
17879;DHT22;9065;51.050;13.758;2023-03-14T13:07:32;18.00;99.90
17879;DHT22;9065;51.050;13.758;2023-03-14T13:12:51;17.60;99.90
17879;DHT22;9065;51.050;13.758;2023-03-14T13:15:27;17.60;99.90
17879;DHT22;9065;51.050;13.758;2023-03-14T13:18:02;17.60;99.90
17879;DHT22;9065;51.050;13.758;2023-03-14T13:20:36;17.60;99.90
17879;DHT22;9065;51.050;13.758;2023-03-14T13:23:28;17.40;99.90
17879;DHT22;9065;51.050;13.758;2023-03-14T13:26:01;17.40;99.90
17879;DHT22;9065;51.050;13.758;2023-03-14T13:28:29;17.30;99.90
17879;DHT22;9065;51.050;13.758;2023-03-14T13:30:58;17.20;99.90
17879;DHT22;9065;51.050;13.758;2023-03-14T13:33:32;17.30;99.90
17879;DHT22;9065;51.050;13.758;2023-03-14T13:36:25;17.50;99.90
17879;DHT22;9065;51.050;13.758;2023-03-14T13:38:57;17.40;99.90
17879;DHT22;9065;51.050;13.758;2023-03-14T13:41:25;17.30;99.90
17879;DHT22;9065;51.050;13.758;2023-03-14T13:44:01;17.10;99.90
17879;DHT22;9065;51.050;13.758;2023-03-14T13:46:30;17.00;99.90
17879;DHT22;9065;51.050;13.758;2023-03-14T13:49:02;17.10;99.90
17879;DHT22;9065;51.050;13.758;2023-03-14T13:51:33;17.10;99.90
17879;DHT22;9065;51.050;13.758;2023-03-14T13:54:01;17.00;99.90
17879;DHT22;9065;51.050;13.758;2023-03-14T13:56:32;17.10;99.90
17879;DHT22;9065;51.050;13.758;2023-03-14T13:58:59;17.00;99.90
17879;DHT22;9065;51.050;13.758;2023-03-14T14:01:29;16.90;99.90
17879;DHT22;9065;51.050;13.758;2023-03-14T14:03:58;16.90;99.90
17879;DHT22;9065;51.050;13.758;2023-03-14T14:06:29;17.00;99.90
17879;DHT22;9065;51.050;13.758;2023-03-14T14:09:00;17.00;99.90
17879;DHT22;9065;51.050;13.758;2023-03-14T14:11:38;16.90;99.90
17879;DHT22;9065;51.050;13.758;2023-03-14T14:14:10;17.00;99.90
17879;DHT22;9065;51.050;13.758;2023-03-14T14:16:41;17.00;99.90
17879;DHT22;9065;51.050;13.758;2023-03-14T14:19:10;16.80;99.90
17879;DHT22;9065;51.050;13.758;2023-03-14T14:21:38;16.70;99.90
17879;DHT22;9065;51.050;13.758;2023-03-14T14:24:08;16.90;99.90
17879;DHT22;9065;51.050;13.758;2023-03-14T14:26:40;17.00;99.90
17879;DHT22;9065;51.050;13.758;2023-03-14T14:29:16;17.10;99.90
17879;DHT22;9065;51.050;13.758;2023-03-14T14:31:47;17.10;99.90
17879;DHT22;9065;51.050;13.758;2023-03-14T14:34:19;17.00;99.90
17879;DHT22;9065;51.050;13.758;2023-03-14T14:36:49;16.90;99.90
17879;DHT22;9065;51.050;13.758;2023-03-14T14:39:19;16.70;99.90
17879;DHT22;9065;51.050;13.758;2023-03-14T14:41:48;16.70;99.90
17879;DHT22;9065;51.050;13.758;2023-03-14T14:44:21;16.60;99.90
17879;DHT22;9065;51.050;13.758;2023-03-14T14:46:51;16.50;99.90
17879;DHT22;9065;51.050;13.758;2023-03-14T14:49:19;16.60;99.90
17879;DHT22;9065;51.050;13.758;2023-03-14T14:51:48;16.70;99.90
17879;DHT22;9065;51.050;13.758;2023-03-14T14:54:18;16.90;99.90
17879;DHT22;9065;51.050;13.758;2023-03-14T14:56:48;17.10;99.90
17879;DHT22;9065;51.050;13.758;2023-03-14T14:59:22;17.20;99.90
17879;DHT22;9065;51.050;13.758;2023-03-14T15:01:55;17.40;99.90
17879;DHT22;9065;51.050;13.758;2023-03-14T15:04:22;17.20;99.90
17879;DHT22;9065;51.050;13.758;2023-03-14T15:06:50;17.30;99.90
17879;DHT22;9065;51.050;13.758;2023-03-14T15:09:19;17.20;99.90
17879;DHT22;9065;51.050;13.758;2023-03-14T15:11:46;17.20;99.90
17879;DHT22;9065;51.050;13.758;2023-03-14T15:14:13;16.90;99.90
17879;DHT22;9065;51.050;13.758;2023-03-14T15:16:41;16.70;99.90
17879;DHT22;9065;51.050;13.758;2023-03-14T15:19:12;16.60;99.90
17879;DHT22;9065;51.050;13.758;2023-03-14T15:21:40;16.40;99.90
17879;DHT22;9065;51.050;13.758;2023-03-14T15:24:09;16.30;99.90
17879;DHT22;9065;51.050;13.758;2023-03-14T15:26:40;16.10;99.90
17879;DHT22;9065;51.050;13.758;2023-03-14T15:29:08;16.10;99.90
17879;DHT22;9065;51.050;13.758;2023-03-14T15:31:38;16.10;99.90
17879;DHT22;9065;51.050;13.758;2023-03-14T15:34:06;15.90;99.90
17879;DHT22;9065;51.050;13.758;2023-03-14T15:36:34;16.00;99.90
17879;DHT22;9065;51.050;13.758;2023-03-14T15:39:02;15.90;99.90
17879;DHT22;9065;51.050;13.758;2023-03-14T15:41:29;15.80;99.90
17879;DHT22;9065;51.050;13.758;2023-03-14T15:43:57;15.80;99.90
17879;DHT22;9065;51.050;13.758;2023-03-14T15:46:24;16.00;99.90
17879;DHT22;9065;51.050;13.758;2023-03-14T15:48:51;15.90;99.90
17879;DHT22;9065;51.050;13.758;2023-03-14T15:51:18;15.80;99.90
17879;DHT22;9065;51.050;13.758;2023-03-14T15:53:46;15.70;99.90
17879;DHT22;9065;51.050;13.758;2023-03-14T15:56:15;15.80;99.90
17879;DHT22;9065;51.050;13.758;2023-03-14T15:58:43;15.80;99.90
17879;DHT22;9065;51.050;13.758;2023-03-14T16:01:14;15.80;99.90
17879;DHT22;9065;51.050;13.758;2023-03-14T16:03:42;15.70;99.90
17879;DHT22;9065;51.050;13.758;2023-03-14T16:06:10;15.70;99.90
17879;DHT22;9065;51.050;13.758;2023-03-14T16:08:37;15.70;99.90
17879;DHT22;9065;51.050;13.758;2023-03-14T16:11:04;15.70;99.90
17879;DHT22;9065;51.050;13.758;2023-03-14T16:13:31;15.60;99.90
17879;DHT22;9065;51.050;13.758;2023-03-14T16:15:59;15.70;99.90
17879;DHT22;9065;51.050;13.758;2023-03-14T16:18:31;15.50;99.90
17879;DHT22;9065;51.050;13.758;2023-03-14T16:21:00;15.30;99.90
17879;DHT22;9065;51.050;13.758;2023-03-14T16:23:27;15.30;99.90
17879;DHT22;9065;51.050;13.758;2023-03-14T16:25:56;15.20;99.90
17879;DHT22;9065;51.050;13.758;2023-03-14T16:28:24;15.10;99.90
17879;DHT22;9065;51.050;13.758;2023-03-14T16:30:51;14.90;99.90
17879;DHT22;9065;51.050;13.758;2023-03-14T16:33:18;14.80;99.90
17879;DHT22;9065;51.050;13.758;2023-03-14T16:35:55;14.70;99.90
17879;DHT22;9065;51.050;13.758;2023-03-14T16:38:22;14.40;99.90
17879;DHT22;9065;51.050;13.758;2023-03-14T16:40:56;14.30;99.90
17879;DHT22;9065;51.050;13.758;2023-03-14T16:43:24;13.90;99.90
17879;DHT22;9065;51.050;13.758;2023-03-14T16:45:50;13.70;99.90
17879;DHT22;9065;51.050;13.758;2023-03-14T16:48:17;13.40;99.90
17879;DHT22;9065;51.050;13.758;2023-03-14T16:50:44;13.10;99.90
17879;DHT22;9065;51.050;13.758;2023-03-14T16:53:14;12.10;99.90
17879;DHT22;9065;51.050;13.758;2023-03-14T16:55:41;11.50;99.90
17879;DHT22;9065;51.050;13.758;2023-03-14T16:58:08;11.00;99.90
17879;DHT22;9065;51.050;13.758;2023-03-14T17:00:35;10.60;99.90
17879;DHT22;9065;51.050;13.758;2023-03-14T17:03:02;10.30;99.90
17879;DHT22;9065;51.050;13.758;2023-03-14T17:05:29;10.10;99.90
17879;DHT22;9065;51.050;13.758;2023-03-14T17:07:56;9.90;99.90
17879;DHT22;9065;51.050;13.758;2023-03-14T17:10:25;9.80;99.90
17879;DHT22;9065;51.050;13.758;2023-03-14T17:12:52;9.70;99.90
17879;DHT22;9065;51.050;13.758;2023-03-14T17:15:19;9.60;99.90
17879;DHT22;9065;51.050;13.758;2023-03-14T17:17:46;9.60;99.90
17879;DHT22;9065;51.050;13.758;2023-03-14T17:20:14;9.50;99.90
17879;DHT22;9065;51.050;13.758;2023-03-14T17:22:41;9.30;99.90
17879;DHT22;9065;51.050;13.758;2023-03-14T17:25:08;9.20;99.90
17879;DHT22;9065;51.050;13.758;2023-03-14T17:27:37;9.00;99.90
17879;DHT22;9065;51.050;13.758;2023-03-14T17:30:04;8.80;99.90
17879;DHT22;9065;51.050;13.758;2023-03-14T17:32:31;8.80;99.90